createdAt,value
2019-05-18T00:05:28.000Z,52.65
2019-05-18T00:15:30.000Z,52.593
2019-05-18T00:25:28.000Z,52.632
2019-05-18T00:35:28.000Z,52.535
2019-05-18T00:45:29.000Z,52.573
2019-05-18T00:55:28.000Z,52.558
2019-05-18T01:05:28.000Z,52.555
2019-05-18T01:15:28.000Z,52.509
2019-05-18T01:25:28.000Z,52.526
2019-05-18T01:35:28.000Z,52.609
2019-05-18T01:45:30.000Z,52.617
2019-05-18T01:55:28.000Z,52.582
2019-05-18T02:05:29.000Z,52.58
2019-05-18T02:15:32.000Z,52.608
2019-05-18T02:25:29.000Z,52.53
2019-05-18T02:35:30.000Z,52.591
2019-05-18T02:45:29.000Z,52.61
2019-05-18T02:55:28.000Z,52.585
2019-05-18T03:05:28.000Z,52.55
2019-05-18T03:15:28.000Z,52.538
2019-05-18T03:25:28.000Z,52.554
2019-05-18T03:35:28.000Z,52.542
2019-05-18T03:45:28.000Z,52.508
2019-05-18T03:55:28.000Z,52.58
2019-05-18T04:05:29.000Z,52.514
2019-05-18T04:15:28.000Z,52.565
2019-05-18T04:25:28.000Z,52.553
2019-05-18T04:35:28.000Z,52.519
2019-05-18T04:45:28.000Z,52.422
2019-05-18T04:55:28.000Z,52.274
2019-05-18T05:05:28.000Z,52.231
2019-05-18T05:15:28.000Z,52.179
2019-05-18T05:25:30.000Z,51.95
2019-05-18T05:35:28.000Z,51.919
2019-05-18T05:45:28.000Z,51.678
2019-05-18T05:55:28.000Z,51.343
2019-05-18T06:05:28.000Z,51.187
2019-05-18T06:15:29.000Z,50.979
2019-05-18T06:25:28.000Z,50.632
2019-05-18T06:35:29.000Z,50.551
2019-05-18T06:45:28.000Z,50.458
2019-05-18T06:55:28.000Z,50.302
2019-05-18T07:05:28.000Z,50.252
2019-05-18T07:15:28.000Z,50.202
2019-05-18T07:25:28.000Z,50.205
2019-05-18T07:35:29.000Z,50.166
2019-05-18T07:45:29.000Z,51.604
2019-05-18T07:55:31.000Z,50.661
2019-05-18T08:05:29.000Z,50.525
2019-05-18T08:15:33.000Z,50.365
2019-05-18T08:25:29.000Z,50.237
2019-05-18T08:55:29.000Z,50.277
2019-05-18T09:05:29.000Z,50.152
2019-05-18T09:15:29.000Z,49.93
2019-05-18T09:25:30.000Z,49.7
2019-05-18T09:35:32.000Z,49.476
2019-05-18T09:45:29.000Z,49.364
2019-05-18T09:55:29.000Z,49.305
2019-05-18T10:05:29.000Z,49.279
2019-05-18T10:25:30.000Z,48.808
2019-05-18T10:35:29.000Z,48.704
2019-05-18T10:45:30.000Z,48.33
2019-05-18T10:55:29.000Z,48.201
2019-05-18T11:05:29.000Z,48.083
2019-05-18T11:15:29.000Z,48.009
2019-05-18T11:25:30.000Z,47.723
2019-05-18T11:35:29.000Z,47.671
2019-05-18T11:45:29.000Z,47.556
2019-05-18T11:55:29.000Z,47.323
2019-05-18T12:05:30.000Z,47.272
2019-05-18T12:15:29.000Z,47.091
2019-05-18T12:25:29.000Z,47.158
2019-05-18T12:35:29.000Z,47.027
2019-05-18T12:45:29.000Z,46.909
2019-05-18T12:55:29.000Z,46.771
2019-05-18T13:05:29.000Z,46.741
2019-05-18T13:15:29.000Z,46.689
2019-05-18T13:25:29.000Z,46.659
2019-05-18T13:35:30.000Z,46.737
2019-05-18T13:45:29.000Z,46.503
2019-05-18T13:55:31.000Z,46.625
2019-05-18T14:05:29.000Z,45.881
2019-05-18T14:15:29.000Z,44.288
2019-05-18T14:25:31.000Z,45.813
2019-05-18T14:35:29.000Z,46.499
2019-05-18T14:45:29.000Z,46.371
2019-05-18T14:55:31.000Z,46.585
2019-05-18T15:05:29.000Z,45.725
2019-05-18T15:15:30.000Z,44.943
2019-05-18T15:25:29.000Z,45.575
2019-05-18T15:35:33.000Z,44.334
2019-05-18T15:45:29.000Z,44.247
2019-05-18T16:05:30.000Z,45.116
2019-05-18T16:15:30.000Z,44.875
2019-05-18T16:25:30.000Z,44.949
2019-05-18T16:35:30.000Z,45.056
2019-05-18T16:45:32.000Z,45.383
2019-05-18T16:55:30.000Z,45.713
2019-05-18T17:05:32.000Z,45.812
2019-05-18T17:15:30.000Z,45.992
2019-05-18T17:25:30.000Z,46.348
2019-05-18T17:35:31.000Z,46.597
2019-05-18T17:45:30.000Z,46.87
2019-05-18T17:55:30.000Z,46.999
2019-05-18T18:05:30.000Z,45.805
2019-05-18T18:15:30.000Z,46.769
2019-05-18T18:25:30.000Z,46.985
2019-05-18T18:35:30.000Z,47.107
2019-05-18T18:45:30.000Z,47.256
2019-05-18T18:55:30.000Z,47.53
2019-05-18T19:05:30.000Z,47.583
2019-05-18T19:15:30.000Z,47.844
2019-05-18T19:25:30.000Z,47.952
2019-05-18T19:35:30.000Z,48.223
2019-05-18T19:45:32.000Z,48.264
2019-05-18T19:55:30.000Z,48.111
2019-05-18T20:05:31.000Z,48.701
2019-05-18T20:15:30.000Z,48.929
2019-05-18T20:25:30.000Z,49.09
2019-05-18T20:35:33.000Z,49.178
2019-05-18T20:45:30.000Z,49.252
2019-05-18T20:55:30.000Z,49.243
2019-05-18T21:05:30.000Z,49.197
2019-05-18T21:15:30.000Z,49.391
2019-05-18T21:25:30.000Z,49.229
2019-05-18T21:35:31.000Z,49.315
2019-05-18T21:45:30.000Z,49.195
2019-05-18T21:55:32.000Z,49.161
2019-05-18T22:05:30.000Z,49.212
2019-05-18T22:15:30.000Z,49.255
2019-05-18T22:25:31.000Z,49.275
2019-05-18T22:35:31.000Z,49.295
2019-05-18T22:45:30.000Z,49.391
2019-05-18T22:55:32.000Z,49.369
2019-05-18T23:05:31.000Z,49.377
2019-05-18T23:15:30.000Z,49.398
2019-05-18T23:25:30.000Z,49.393
2019-05-18T23:35:30.000Z,49.487
2019-05-18T23:45:30.000Z,49.563
2019-05-18T23:55:30.000Z,49.676
